METAR Data
IDs: Format: Raw Decoded Include TAF

Data at: 0512 UTC 03 Jul 2022

METAR for:KARW (Beaufort Cnty, GA, US)
Text:KARW 030455Z AUTO 23006KT 10SM CLR 26/22 A3003 RMK AO2
Temperature: 26.0°C ( 79°F)
Dewpoint: 22.0°C ( 72°F) [RH = 79%]
Pressure (altimeter):30.03 inches Hg (1017.0 mb)
Winds:from the SW (230 degrees) at 7 MPH (6 knots; 3.1 m/s)
Visibility:10 or more sm (16+ km)
Ceiling:at least 12,000 feet AGL
Clouds:sky clear below 12,000 feet AGL
QC Flag:automated observation with no human augmentation

TAF for:KARW (Beaufort Cnty, GA, US)
Text:No data found